sensor_id;sensor_type;location;lat;lon;timestamp;pressure;altitude;pressure_sealevel;temperature;humidity
41800;BME280;27468;47.460;19.034;2023-02-28T00:02:07;101547.56;;;1.89;49.01
41800;BME280;27468;47.460;19.034;2023-02-28T00:04:32;101487.50;;;1.55;49.05
41800;BME280;27468;47.460;19.034;2023-02-28T00:06:58;101525.41;;;1.75;49.15
41800;BME280;27468;47.460;19.034;2023-02-28T00:09:23;101539.72;;;1.88;48.97
41800;BME280;27468;47.460;19.034;2023-02-28T00:11:48;101539.81;;;1.91;48.95
41800;BME280;27468;47.460;19.034;2023-02-28T00:14:14;101518.44;;;1.73;49.01
41800;BME280;27468;47.460;19.034;2023-02-28T00:16:39;101515.72;;;1.70;49.12
41800;BME280;27468;47.460;19.034;2023-02-28T00:19:05;101487.59;;;1.58;49.11
41800;BME280;27468;47.460;19.034;2023-02-28T00:21:30;101556.78;;;2.05;48.75
41800;BME280;27468;47.460;19.034;2023-02-28T00:23:55;101483.00;;;1.51;49.05
41800;BME280;27468;47.460;19.034;2023-02-28T00:26:21;101557.03;;;1.87;49.32
41800;BME280;27468;47.460;19.034;2023-02-28T00:28:46;101552.47;;;1.80;49.41
41800;BME280;27468;47.460;19.034;2023-02-28T00:31:12;101539.22;;;1.73;49.58
41800;BME280;27468;47.460;19.034;2023-02-28T00:33:37;101540.13;;;1.75;49.47
41800;BME280;27468;47.460;19.034;2023-02-28T00:36:08;101535.97;;;1.80;49.42
41800;BME280;27468;47.460;19.034;2023-02-28T00:38:34;101575.09;;;2.08;49.04
41800;BME280;27468;47.460;19.034;2023-02-28T00:41:00;101577.75;;;2.10;49.09
41800;BME280;27468;47.460;19.034;2023-02-28T00:43:30;101570.16;;;2.16;48.97
41800;BME280;27468;47.460;19.034;2023-02-28T00:45:55;101492.66;;;1.80;48.85
41800;BME280;27468;47.460;19.034;2023-02-28T00:48:21;101577.38;;;2.24;48.66
41800;BME280;27468;47.460;19.034;2023-02-28T00:50:48;101541.28;;;2.08;48.65
41800;BME280;27468;47.460;19.034;2023-02-28T00:53:14;101584.25;;;2.22;48.69
41800;BME280;27468;47.460;19.034;2023-02-28T00:55:40;101476.72;;;1.70;48.69
41800;BME280;27468;47.460;19.034;2023-02-28T00:58:05;101552.00;;;2.17;48.60
41800;BME280;27468;47.460;19.034;2023-02-28T01:00:30;101562.88;;;2.32;48.45
41800;BME280;27468;47.460;19.034;2023-02-28T01:02:56;101552.13;;;2.22;48.35
41800;BME280;27468;47.460;19.034;2023-02-28T01:05:21;101545.66;;;2.09;48.45
41800;BME280;27468;47.460;19.034;2023-02-28T01:07:47;101562.53;;;2.22;48.36
41800;BME280;27468;47.460;19.034;2023-02-28T01:10:12;101535.97;;;2.05;48.24
41800;BME280;27468;47.460;19.034;2023-02-28T01:12:38;101585.41;;;2.32;48.43
41800;BME280;27468;47.460;19.034;2023-02-28T01:15:03;101563.69;;;2.31;48.19
41800;BME280;27468;47.460;19.034;2023-02-28T01:17:29;101540.66;;;2.15;48.16
41800;BME280;27468;47.460;19.034;2023-02-28T01:19:55;101573.22;;;2.29;48.38
41800;BME280;27468;47.460;19.034;2023-02-28T01:22:21;101562.44;;;2.19;48.11
41800;BME280;27468;47.460;19.034;2023-02-28T01:24:47;101557.19;;;2.17;48.00
41800;BME280;27468;47.460;19.034;2023-02-28T01:27:13;101577.38;;;2.24;47.79
41800;BME280;27468;47.460;19.034;2023-02-28T01:29:38;101560.63;;;2.16;48.19
41800;BME280;27468;47.460;19.034;2023-02-28T01:32:04;101539.88;;;2.18;48.02
41800;BME280;27468;47.460;19.034;2023-02-28T01:34:30;101572.31;;;2.29;47.77
41800;BME280;27468;47.460;19.034;2023-02-28T01:36:55;101567.13;;;2.29;47.70
41800;BME280;27468;47.460;19.034;2023-02-28T01:39:20;101486.38;;;1.74;47.61
41800;BME280;27468;47.460;19.034;2023-02-28T01:41:46;101559.84;;;2.19;47.75
41800;BME280;27468;47.460;19.034;2023-02-28T01:47:15;101577.59;;;2.30;47.84
41800;BME280;27468;47.460;19.034;2023-02-28T01:49:40;101570.47;;;2.25;48.11
41800;BME280;27468;47.460;19.034;2023-02-28T01:52:07;101501.66;;;1.90;47.78
41800;BME280;27468;47.460;19.034;2023-02-28T01:54:34;101568.41;;;2.43;47.78
41800;BME280;27468;47.460;19.034;2023-02-28T01:57:04;101568.66;;;2.51;47.62
41800;BME280;27468;47.460;19.034;2023-02-28T01:59:36;101559.47;;;2.35;47.69
41800;BME280;27468;47.460;19.034;2023-02-28T02:02:03;101562.88;;;2.32;47.62
41800;BME280;27468;47.460;19.034;2023-02-28T02:04:36;101573.78;;;2.48;47.37
41800;BME280;27468;47.460;19.034;2023-02-28T02:07:03;101507.50;;;2.10;47.11
41800;BME280;27468;47.460;19.034;2023-02-28T02:09:29;101522.28;;;2.11;47.33
41800;BME280;27468;47.460;19.034;2023-02-28T02:11:55;101557.13;;;2.43;47.14
41800;BME280;27468;47.460;19.034;2023-02-28T02:14:32;101566.91;;;2.50;47.15
41800;BME280;27468;47.460;19.034;2023-02-28T02:17:28;101554.22;;;2.33;47.16
41800;BME280;27468;47.460;19.034;2023-02-28T02:31:56;101570.97;;;2.42;48.16
41800;BME280;27468;47.460;19.034;2023-02-28T02:37:36;101577.16;;;2.45;48.33
41800;BME280;27468;47.460;19.034;2023-02-28T02:43:34;101570.00;;;2.38;48.97
41800;BME280;27468;47.460;19.034;2023-02-28T02:45:47;101574.41;;;2.41;47.99
41800;BME280;27468;47.460;19.034;2023-02-28T02:48:17;101570.94;;;2.40;47.46
41800;BME280;27468;47.460;19.034;2023-02-28T02:50:48;101573.47;;;2.39;47.46
41800;BME280;27468;47.460;19.034;2023-02-28T02:53:18;101488.84;;;1.96;47.35
41800;BME280;27468;47.460;19.034;2023-02-28T02:55:48;101515.38;;;2.11;47.28
41800;BME280;27468;47.460;19.034;2023-02-28T02:58:22;101550.69;;;2.31;46.85
41800;BME280;27468;47.460;19.034;2023-02-28T03:00:55;101582.81;;;2.32;46.71
41800;BME280;27468;47.460;19.034;2023-02-28T03:03:23;101553.75;;;2.18;46.57
41800;BME280;27468;47.460;19.034;2023-02-28T03:05:56;101561.91;;;2.29;46.29
41800;BME280;27468;47.460;19.034;2023-02-28T03:08:22;101516.72;;;2.00;46.24
41800;BME280;27468;47.460;19.034;2023-02-28T03:10:50;101565.03;;;2.19;46.09
41800;BME280;27468;47.460;19.034;2023-02-28T03:19:33;101573.84;;;2.22;46.46
41800;BME280;27468;47.460;19.034;2023-02-28T03:29:58;101506.81;;;1.88;47.31
41800;BME280;27468;47.460;19.034;2023-02-28T03:33:17;101577.28;;;2.21;47.71
41800;BME280;27468;47.460;19.034;2023-02-28T03:35:26;101566.50;;;2.11;48.07
41800;BME280;27468;47.460;19.034;2023-02-28T03:37:59;101520.00;;;1.94;48.12
41800;BME280;27468;47.460;19.034;2023-02-28T03:40:28;101554.38;;;2.11;48.27
41800;BME280;27468;47.460;19.034;2023-02-28T03:42:59;101565.81;;;2.16;48.46
41800;BME280;27468;47.460;19.034;2023-02-28T03:45:29;101571.13;;;2.19;48.46
41800;BME280;27468;47.460;19.034;2023-02-28T03:48:05;101588.00;;;2.32;48.42
41800;BME280;27468;47.460;19.034;2023-02-28T03:50:38;101507.06;;;1.96;48.41
41800;BME280;27468;47.460;19.034;2023-02-28T03:53:12;101529.00;;;2.04;48.37
41800;BME280;27468;47.460;19.034;2023-02-28T03:55:50;101567.19;;;2.32;47.51
41800;BME280;27468;47.460;19.034;2023-02-28T04:01:08;101554.44;;;2.13;47.07
41800;BME280;27468;47.460;19.034;2023-02-28T04:03:37;101579.56;;;2.39;47.31
41800;BME280;27468;47.460;19.034;2023-02-28T04:06:04;101540.59;;;2.14;47.18
41800;BME280;27468;47.460;19.034;2023-02-28T04:08:31;101578.00;;;2.44;46.93
41800;BME280;27468;47.460;19.034;2023-02-28T04:11:06;101497.06;;;2.08;46.79
41800;BME280;27468;47.460;19.034;2023-02-28T04:13:33;101520.91;;;2.22;46.67
41800;BME280;27468;47.460;19.034;2023-02-28T04:15:59;101552.13;;;2.22;46.85
41800;BME280;27468;47.460;19.034;2023-02-28T04:18:24;101553.03;;;2.22;46.86
41800;BME280;27468;47.460;19.034;2023-02-28T04:20:50;101564.78;;;2.38;46.65
41800;BME280;27468;47.460;19.034;2023-02-28T04:23:15;101493.16;;;1.95;46.63
41800;BME280;27468;47.460;19.034;2023-02-28T04:25:41;101558.34;;;2.25;46.71
41800;BME280;27468;47.460;19.034;2023-02-28T04:28:06;101562.44;;;2.19;46.74
41800;BME280;27468;47.460;19.034;2023-02-28T04:30:31;101557.53;;;2.28;46.53
41800;BME280;27468;47.460;19.034;2023-02-28T04:32:58;101499.81;;;2.13;46.60
41800;BME280;27468;47.460;19.034;2023-02-28T04:35:23;101546.53;;;2.37;46.55
41800;BME280;27468;47.460;19.034;2023-02-28T04:37:48;101498.47;;;1.98;47.25
41800;BME280;27468;47.460;19.034;2023-02-28T04:40:14;101572.94;;;2.49;46.93
41800;BME280;27468;47.460;19.034;2023-02-28T04:42:39;101543.88;;;2.35;47.35
41800;BME280;27468;47.460;19.034;2023-02-28T04:45:05;101511.97;;;2.14;47.45
41800;BME280;27468;47.460;19.034;2023-02-28T04:47:31;101567.38;;;2.38;47.00
41800;BME280;27468;47.460;19.034;2023-02-28T04:49:56;101572.00;;;2.47;46.83
41800;BME280;27468;47.460;19.034;2023-02-28T04:52:22;101571.75;;;2.39;46.71
41800;BME280;27468;47.460;19.034;2023-02-28T04:54:47;101544.53;;;2.28;46.83
41800;BME280;27468;47.460;19.034;2023-02-28T04:57:13;101568.13;;;2.34;46.79
41800;BME280;27468;47.460;19.034;2023-02-28T04:59:38;101528.69;;;2.20;46.90
41800;BME280;27468;47.460;19.034;2023-02-28T05:02:03;101566.91;;;2.50;46.64
41800;BME280;27468;47.460;19.034;2023-02-28T05:04:33;101526.28;;;2.26;46.84
41800;BME280;27468;47.460;19.034;2023-02-28T05:07:00;101577.22;;;2.47;46.49
41800;BME280;27468;47.460;19.034;2023-02-28T05:09:25;101474.28;;;2.01;46.56
41800;BME280;27468;47.460;19.034;2023-02-28T05:11:51;101557.22;;;2.46;46.31
41800;BME280;27468;47.460;19.034;2023-02-28T05:14:16;101561.84;;;2.54;46.77
41800;BME280;27468;47.460;19.034;2023-02-28T05:16:42;101510.50;;;2.22;46.26
41800;BME280;27468;47.460;19.034;2023-02-28T05:19:07;101550.50;;;2.52;46.54
41800;BME280;27468;47.460;19.034;2023-02-28T05:21:35;101541.41;;;2.40;46.67
41800;BME280;27468;47.460;19.034;2023-02-28T05:24:11;101573.34;;;2.61;46.44
41800;BME280;27468;47.460;19.034;2023-02-28T05:26:38;101567.88;;;2.53;46.12
41800;BME280;27468;47.460;19.034;2023-02-28T05:29:04;101574.59;;;2.47;46.21
41800;BME280;27468;47.460;19.034;2023-02-28T05:31:30;101525.09;;;2.17;46.55
41800;BME280;27468;47.460;19.034;2023-02-28T05:33:56;101504.81;;;2.07;46.58
41800;BME280;27468;47.460;19.034;2023-02-28T05:36:21;101499.75;;;2.11;46.37
41800;BME280;27468;47.460;19.034;2023-02-28T05:38:48;101553.69;;;2.44;46.26
41800;BME280;27468;47.460;19.034;2023-02-28T05:41:13;101564.19;;;2.47;46.39
41800;BME280;27468;47.460;19.034;2023-02-28T05:43:39;101570.63;;;2.58;46.12
41800;BME280;27468;47.460;19.034;2023-02-28T05:46:06;101567.25;;;2.60;46.52
41800;BME280;27468;47.460;19.034;2023-02-28T05:48:33;101532.41;;;2.28;46.59
41800;BME280;27468;47.460;19.034;2023-02-28T05:50:59;101597.78;;;2.66;46.95
41800;BME280;27468;47.460;19.034;2023-02-28T05:53:24;101592.63;;;2.68;47.32
41800;BME280;27468;47.460;19.034;2023-02-28T05:55:50;101565.56;;;2.36;47.66
41800;BME280;27468;47.460;19.034;2023-02-28T05:58:15;101575.84;;;2.58;47.23
41800;BME280;27468;47.460;19.034;2023-02-28T06:00:41;101560.13;;;2.55;47.14
41800;BME280;27468;47.460;19.034;2023-02-28T06:03:06;101606.25;;;2.59;47.89
41800;BME280;27468;47.460;19.034;2023-02-28T06:05:31;101545.75;;;2.12;47.89
41800;BME280;27468;47.460;19.034;2023-02-28T06:07:58;101525.38;;;1.99;48.21
41800;BME280;27468;47.460;19.034;2023-02-28T06:10:23;101597.50;;;2.30;47.97
41800;BME280;27468;47.460;19.034;2023-02-28T06:12:49;101571.19;;;2.21;48.08
41800;BME280;27468;47.460;19.034;2023-02-28T06:15:15;101539.09;;;2.20;47.34
41800;BME280;27468;47.460;19.034;2023-02-28T06:17:42;101601.66;;;2.52;47.87
41800;BME280;27468;47.460;19.034;2023-02-28T06:20:08;101521.41;;;2.10;47.92
41800;BME280;27468;47.460;19.034;2023-02-28T06:22:36;101548.84;;;2.27;47.77
41800;BME280;27468;47.460;19.034;2023-02-28T06:25:03;101567.63;;;2.46;47.48
41800;BME280;27468;47.460;19.034;2023-02-28T06:27:28;101608.91;;;2.60;47.40
41800;BME280;27468;47.460;19.034;2023-02-28T06:29:54;101592.59;;;2.66;47.33
41800;BME280;27468;47.460;19.034;2023-02-28T06:32:21;101611.50;;;2.89;46.60
41800;BME280;27468;47.460;19.034;2023-02-28T06:34:46;101599.41;;;2.91;46.56
41800;BME280;27468;47.460;19.034;2023-02-28T06:37:12;101601.66;;;2.79;46.44
41800;BME280;27468;47.460;19.034;2023-02-28T06:39:37;101620.25;;;2.91;46.57
41800;BME280;27468;47.460;19.034;2023-02-28T06:42:03;101628.25;;;2.97;46.41
41800;BME280;27468;47.460;19.034;2023-02-28T06:44:28;101570.13;;;2.70;46.44
41800;BME280;27468;47.460;19.034;2023-02-28T06:47:01;101614.25;;;2.93;46.55
41800;BME280;27468;47.460;19.034;2023-02-28T06:49:27;101558.78;;;2.68;46.73
41800;BME280;27468;47.460;19.034;2023-02-28T06:51:53;101616.69;;;3.16;46.46
41800;BME280;27468;47.460;19.034;2023-02-28T06:54:19;101633.34;;;3.21;46.63
41800;BME280;27468;47.460;19.034;2023-02-28T06:56:44;101631.72;;;3.24;46.43
41800;BME280;27468;47.460;19.034;2023-02-28T06:59:10;101625.38;;;3.16;46.43
41800;BME280;27468;47.460;19.034;2023-02-28T07:01:35;101595.19;;;3.23;45.84
41800;BME280;27468;47.460;19.034;2023-02-28T07:04:01;101567.84;;;3.09;45.42
41800;BME280;27468;47.460;19.034;2023-02-28T07:06:27;101629.34;;;3.32;45.67
41800;BME280;27468;47.460;19.034;2023-02-28T07:08:53;101635.53;;;3.36;45.74
41800;BME280;27468;47.460;19.034;2023-02-28T07:11:24;101632.13;;;3.38;45.52
41800;BME280;27468;47.460;19.034;2023-02-28T07:13:51;101614.44;;;3.28;46.15
41800;BME280;27468;47.460;19.034;2023-02-28T07:16:17;101638.09;;;3.65;44.99
41800;BME280;27468;47.460;19.034;2023-02-28T07:18:43;101626.75;;;3.63;44.43
41800;BME280;27468;47.460;19.034;2023-02-28T07:21:09;101640.97;;;3.75;44.53
41800;BME280;27468;47.460;19.034;2023-02-28T07:23:36;101598.47;;;3.46;44.64
41800;BME280;27468;47.460;19.034;2023-02-28T07:26:04;101641.88;;;3.75;44.84
41800;BME280;27468;47.460;19.034;2023-02-28T07:28:29;101627.63;;;3.64;44.39
41800;BME280;27468;47.460;19.034;2023-02-28T07:30:55;101638.41;;;3.76;44.02
41800;BME280;27468;47.460;19.034;2023-02-28T07:33:20;101617.59;;;3.46;44.33
41800;BME280;27468;47.460;19.034;2023-02-28T07:35:45;101643.19;;;3.61;44.44
41800;BME280;27468;47.460;19.034;2023-02-28T07:38:11;101640.72;;;3.65;43.73
41800;BME280;27468;47.460;19.034;2023-02-28T07:40:39;101640.31;;;3.52;44.40
41800;BME280;27468;47.460;19.034;2023-02-28T07:43:04;101651.63;;;3.52;44.47
41800;BME280;27468;47.460;19.034;2023-02-28T07:45:31;101632.53;;;3.53;44.19
41800;BME280;27468;47.460;19.034;2023-02-28T07:48:00;101651.81;;;3.58;44.10
41800;BME280;27468;47.460;19.034;2023-02-28T07:50:26;101645.00;;;3.63;43.88
41800;BME280;27468;47.460;19.034;2023-02-28T07:52:54;101638.09;;;3.65;44.05
41800;BME280;27468;47.460;19.034;2023-02-28T07:55:19;101606.34;;;3.49;43.83
41800;BME280;27468;47.460;19.034;2023-02-28T07:57:45;101647.56;;;3.62;44.04
41800;BME280;27468;47.460;19.034;2023-02-28T08:00:11;101651.94;;;3.63;43.84
41800;BME280;27468;47.460;19.034;2023-02-28T08:02:37;101651.78;;;3.57;43.64
41800;BME280;27468;47.460;19.034;2023-02-28T08:05:04;101650.97;;;3.59;43.58
41800;BME280;27468;47.460;19.034;2023-02-28T08:07:30;101661.88;;;3.45;43.81
41800;BME280;27468;47.460;19.034;2023-02-28T08:09:55;101640.22;;;3.49;43.78
41800;BME280;27468;47.460;19.034;2023-02-28T08:12:21;101642.13;;;3.54;43.50
41800;BME280;27468;47.460;19.034;2023-02-28T08:14:46;101637.31;;;3.68;42.61
41800;BME280;27468;47.460;19.034;2023-02-28T08:17:11;101652.47;;;3.81;42.66
41800;BME280;27468;47.460;19.034;2023-02-28T08:19:37;101557.28;;;3.34;42.83
41800;BME280;27468;47.460;19.034;2023-02-28T08:22:03;101643.03;;;3.86;42.75
41800;BME280;27468;47.460;19.034;2023-02-28T08:24:28;101642.50;;;3.98;42.54
41800;BME280;27468;47.460;19.034;2023-02-28T08:26:55;101574.72;;;3.68;42.47
41800;BME280;27468;47.460;19.034;2023-02-28T08:29:20;101646.03;;;4.00;42.54
41800;BME280;27468;47.460;19.034;2023-02-28T08:31:45;101646.03;;;4.00;42.38
41800;BME280;27468;47.460;19.034;2023-02-28T08:34:14;101576.63;;;3.74;42.54
41800;BME280;27468;47.460;19.034;2023-02-28T08:36:40;101595.47;;;3.95;42.59
41800;BME280;27468;47.460;19.034;2023-02-28T08:39:06;101645.91;;;4.28;42.55
41800;BME280;27468;47.460;19.034;2023-02-28T08:41:32;101628.72;;;4.37;42.54
41800;BME280;27468;47.460;19.034;2023-02-28T08:43:57;101628.56;;;4.30;42.38
41800;BME280;27468;47.460;19.034;2023-02-28T08:46:23;101634.44;;;4.56;42.35
41800;BME280;27468;47.460;19.034;2023-02-28T08:48:52;101640.84;;;4.71;41.74
41800;BME280;27468;47.460;19.034;2023-02-28T08:51:19;101595.19;;;4.53;41.94
41800;BME280;27468;47.460;19.034;2023-02-28T08:53:51;101633.78;;;5.03;41.30
41800;BME280;27468;47.460;19.034;2023-02-28T08:56:16;101581.13;;;4.86;41.42
41800;BME280;27468;47.460;19.034;2023-02-28T08:58:43;101613.75;;;5.03;41.16
41800;BME280;27468;47.460;19.034;2023-02-28T09:01:20;101632.16;;;5.08;41.27
41800;BME280;27468;47.460;19.034;2023-02-28T09:03:48;101594.38;;;4.93;41.37
41800;BME280;27468;47.460;19.034;2023-02-28T09:06:15;101643.97;;;5.31;40.97
41800;BME280;27468;47.460;19.034;2023-02-28T09:08:41;101631.84;;;5.35;40.75
41800;BME280;27468;47.460;19.034;2023-02-28T09:11:07;101639.34;;;5.58;40.73
41800;BME280;27468;47.460;19.034;2023-02-28T09:13:33;101626.69;;;5.38;40.14
41800;BME280;27468;47.460;19.034;2023-02-28T09:16:00;101641.75;;;5.49;40.47
41800;BME280;27468;47.460;19.034;2023-02-28T09:18:26;101640.13;;;5.54;40.20
41800;BME280;27468;47.460;19.034;2023-02-28T09:20:52;101630.09;;;5.76;40.01
41800;BME280;27468;47.460;19.034;2023-02-28T09:23:18;101637.09;;;5.78;40.25
41800;BME280;27468;47.460;19.034;2023-02-28T09:25:51;101632.75;;;5.79;40.41
41800;BME280;27468;47.460;19.034;2023-02-28T09:28:17;101634.06;;;5.57;40.12
41800;BME280;27468;47.460;19.034;2023-02-28T09:30:49;101636.13;;;5.72;40.60
41800;BME280;27468;47.460;19.034;2023-02-28T09:33:15;101593.16;;;5.60;39.87
41800;BME280;27468;47.460;19.034;2023-02-28T09:35:40;101638.56;;;6.08;39.75
41800;BME280;27468;47.460;19.034;2023-02-28T09:38:06;101641.50;;;6.24;39.77
41800;BME280;27468;47.460;19.034;2023-02-28T09:40:39;101642.34;;;6.23;39.45
41800;BME280;27468;47.460;19.034;2023-02-28T09:43:11;101643.31;;;6.28;39.45
41800;BME280;27468;47.460;19.034;2023-02-28T09:45:41;101570.06;;;5.85;39.46
41800;BME280;27468;47.460;19.034;2023-02-28T09:48:31;101637.66;;;6.06;39.38
41800;BME280;27468;47.460;19.034;2023-02-28T09:51:04;101640.72;;;6.30;39.43
41800;BME280;27468;47.460;19.034;2023-02-28T09:53:35;101589.84;;;6.16;39.02
41800;BME280;27468;47.460;19.034;2023-02-28T09:56:13;101549.63;;;6.12;38.86
41800;BME280;27468;47.460;19.034;2023-02-28T09:58:51;101586.72;;;6.38;38.62
41800;BME280;27468;47.460;19.034;2023-02-28T10:01:26;101630.16;;;6.77;38.74
41800;BME280;27468;47.460;19.034;2023-02-28T10:06:28;101616.47;;;6.97;37.90
41800;BME280;27468;47.460;19.034;2023-02-28T10:09:04;101561.69;;;6.57;38.14
41800;BME280;27468;47.460;19.034;2023-02-28T10:11:35;101603.22;;;6.87;38.52
41800;BME280;27468;47.460;19.034;2023-02-28T10:14:06;101605.00;;;6.89;38.76
41800;BME280;27468;47.460;19.034;2023-02-28T10:16:42;101565.56;;;6.82;38.75
41800;BME280;27468;47.460;19.034;2023-02-28T10:19:35;101626.94;;;6.97;38.22
41800;BME280;27468;47.460;19.034;2023-02-28T10:22:11;101613.03;;;7.03;38.04
41800;BME280;27468;47.460;19.034;2023-02-28T10:24:41;101573.56;;;6.91;37.90
41800;BME280;27468;47.460;19.034;2023-02-28T10:27:17;101570.72;;;6.76;37.82
41800;BME280;27468;47.460;19.034;2023-02-28T10:29:46;101617.50;;;7.09;38.39
41800;BME280;27468;47.460;19.034;2023-02-28T10:32:40;101570.56;;;6.65;38.59
41800;BME280;27468;47.460;19.034;2023-02-28T10:35:20;101607.28;;;6.67;38.68
41800;BME280;27468;47.460;19.034;2023-02-28T10:37:49;101573.88;;;6.55;38.46
41800;BME280;27468;47.460;19.034;2023-02-28T10:42:59;101545.16;;;6.61;38.16
41800;BME280;27468;47.460;19.034;2023-02-28T10:45:26;101607.41;;;6.74;38.91
41800;BME280;27468;47.460;19.034;2023-02-28T10:50:52;101609.09;;;6.72;39.17
41800;BME280;27468;47.460;19.034;2023-02-28T10:55:58;101599.66;;;6.82;39.07
41800;BME280;27468;47.460;19.034;2023-02-28T10:58:26;101542.34;;;6.49;39.06
41800;BME280;27468;47.460;19.034;2023-02-28T11:00:52;101583.94;;;6.83;38.70
41800;BME280;27468;47.460;19.034;2023-02-28T11:03:30;101584.44;;;7.20;38.37
41800;BME280;27468;47.460;19.034;2023-02-28T11:05:56;101576.63;;;7.24;38.20
41800;BME280;27468;47.460;19.034;2023-02-28T11:08:22;101583.59;;;7.22;37.90
41800;BME280;27468;47.460;19.034;2023-02-28T11:10:54;101583.63;;;7.25;37.91
41800;BME280;27468;47.460;19.034;2023-02-28T11:13:21;101564.66;;;7.45;38.06
41800;BME280;27468;47.460;19.034;2023-02-28T11:15:59;101569.25;;;7.67;37.51
41800;BME280;27468;47.460;19.034;2023-02-28T11:18:30;101588.34;;;7.54;37.54
41800;BME280;27468;47.460;19.034;2023-02-28T11:21:00;101569.22;;;7.64;37.52
41800;BME280;27468;47.460;19.034;2023-02-28T11:23:29;101518.25;;;7.42;37.32
41800;BME280;27468;47.460;19.034;2023-02-28T11:25:59;101572.06;;;7.85;37.31
41800;BME280;27468;47.460;19.034;2023-02-28T11:28:28;101567.66;;;7.83;37.74
41800;BME280;27468;47.460;19.034;2023-02-28T11:33:40;101522.97;;;7.75;37.83
41800;BME280;27468;47.460;19.034;2023-02-28T11:36:13;101560.03;;;8.07;38.15
41800;BME280;27468;47.460;19.034;2023-02-28T11:38:39;101573.31;;;8.27;37.67
41800;BME280;27468;47.460;19.034;2023-02-28T11:51:33;101481.94;;;7.86;37.37
41800;BME280;27468;47.460;19.034;2023-02-28T11:56:58;101537.59;;;8.43;36.93
41800;BME280;27468;47.460;19.034;2023-02-28T12:02:23;101529.75;;;8.52;37.06
41800;BME280;27468;47.460;19.034;2023-02-28T12:07:47;101539.44;;;8.56;37.36
41800;BME280;27468;47.460;19.034;2023-02-28T12:21:11;101501.13;;;7.79;37.74
41800;BME280;27468;47.460;19.034;2023-02-28T12:24:01;101534.72;;;8.18;37.58
41800;BME280;27468;47.460;19.034;2023-02-28T12:26:42;101523.38;;;8.24;37.39
41800;BME280;27468;47.460;19.034;2023-02-28T12:32:05;101522.38;;;8.10;38.16
41800;BME280;27468;47.460;19.034;2023-02-28T12:34:36;101485.50;;;7.91;38.07
41800;BME280;27468;47.460;19.034;2023-02-28T12:37:07;101497.88;;;8.05;38.38
41800;BME280;27468;47.460;19.034;2023-02-28T12:39:39;101492.78;;;8.32;38.03
41800;BME280;27468;47.460;19.034;2023-02-28T12:42:10;101470.66;;;7.98;38.16
41800;BME280;27468;47.460;19.034;2023-02-28T12:44:56;101519.66;;;7.94;39.03
41800;BME280;27468;47.460;19.034;2023-02-28T12:47:23;101510.94;;;7.99;39.10
41800;BME280;27468;47.460;19.034;2023-02-28T12:49:58;101513.75;;;8.24;38.62
41800;BME280;27468;47.460;19.034;2023-02-28T12:55:35;101498.75;;;8.11;39.08
41800;BME280;27468;47.460;19.034;2023-02-28T13:09:14;101475.84;;;7.90;38.84
41800;BME280;27468;47.460;19.034;2023-02-28T13:11:49;101484.66;;;7.95;39.32
41800;BME280;27468;47.460;19.034;2023-02-28T13:14:23;101489.13;;;8.07;39.30
41800;BME280;27468;47.460;19.034;2023-02-28T13:16:56;101483.94;;;8.21;39.27
41800;BME280;27468;47.460;19.034;2023-02-28T13:19:25;101477.84;;;8.25;38.96
41800;BME280;27468;47.460;19.034;2023-02-28T13:21:51;101441.84;;;8.04;38.77
41800;BME280;27468;47.460;19.034;2023-02-28T13:24:41;101483.00;;;8.11;39.57
41800;BME280;27468;47.460;19.034;2023-02-28T13:34:37;101484.66;;;7.97;40.30
41800;BME280;27468;47.460;19.034;2023-02-28T13:39:51;101439.78;;;7.70;40.07
41800;BME280;27468;47.460;19.034;2023-02-28T13:47:36;101462.88;;;8.07;40.27
41800;BME280;27468;47.460;19.034;2023-02-28T14:04:16;101460.19;;;8.01;40.72
41800;BME280;27468;47.460;19.034;2023-02-28T14:06:38;101453.09;;;7.89;40.94
41800;BME280;27468;47.460;19.034;2023-02-28T14:11:48;101439.16;;;8.00;40.41
41800;BME280;27468;47.460;19.034;2023-02-28T14:17:21;101456.75;;;8.14;40.43
41800;BME280;27468;47.460;19.034;2023-02-28T14:19:47;101454.81;;;7.86;41.15
41800;BME280;27468;47.460;19.034;2023-02-28T14:25:38;101459.31;;;8.02;41.30
41800;BME280;27468;47.460;19.034;2023-02-28T14:31:13;101410.00;;;7.66;41.06
41800;BME280;27468;47.460;19.034;2023-02-28T14:36:32;101440.06;;;8.03;40.85
41800;BME280;27468;47.460;19.034;2023-02-28T14:41:35;101432.16;;;8.00;41.03
41800;BME280;27468;47.460;19.034;2023-02-28T14:44:12;101373.31;;;7.72;40.50
41800;BME280;27468;47.460;19.034;2023-02-28T14:46:40;101390.88;;;7.81;40.87
41800;BME280;27468;47.460;19.034;2023-02-28T14:49:09;101394.41;;;7.86;40.79
41800;BME280;27468;47.460;19.034;2023-02-28T14:51:37;101431.19;;;7.87;40.98
41800;BME280;27468;47.460;19.034;2023-02-28T14:54:03;101426.69;;;7.71;41.28
41800;BME280;27468;47.460;19.034;2023-02-28T14:56:37;101432.69;;;7.61;41.66
41800;BME280;27468;47.460;19.034;2023-02-28T14:59:04;101430.09;;;7.64;41.49
41800;BME280;27468;47.460;19.034;2023-02-28T15:01:30;101400.25;;;7.53;41.73
41800;BME280;27468;47.460;19.034;2023-02-28T15:04:21;101446.75;;;7.66;41.82
41800;BME280;27468;47.460;19.034;2023-02-28T15:07:14;101442.50;;;7.79;41.59
41800;BME280;27468;47.460;19.034;2023-02-28T15:09:39;101447.00;;;7.95;41.54
41800;BME280;27468;47.460;19.034;2023-02-28T15:12:05;101437.28;;;7.83;41.32
41800;BME280;27468;47.460;19.034;2023-02-28T15:14:31;101458.31;;;7.85;41.50
41800;BME280;27468;47.460;19.034;2023-02-28T15:17:02;101400.19;;;7.42;41.64
41800;BME280;27468;47.460;19.034;2023-02-28T15:19:36;101448.50;;;7.67;41.75
41800;BME280;27468;47.460;19.034;2023-02-28T15:22:07;101445.88;;;7.66;41.95
41800;BME280;27468;47.460;19.034;2023-02-28T15:24:38;101429.31;;;7.71;42.13